Aeroporto :
LOGIN :

Iscrizione | Disclaimer

   EN    FR    IT 

 










Sommario :    VFR   VFR Marginale   IFR   IFR Intensivo   IFR Molto Intensivo
Visibilità : 
Base nubi : 
>= 8 km
>= 3000ft
5 / 8 km
1000 / 3000 ft
1500m / 5 km
500 / 1000 ft
800 / 1500m
200 / 500 ft
< 800m
< 200 ft
Simboli :   Temporali  Nebbia  Neve Forte  Precipitazioni Forti  Vento > 20 kt
SIGMETs :   Varie  Temporali  Ghiacco  Turbolenza  Onda orograficha  Ceneri Vulcaniche






- Altitudine del aeroporto : 13 ft
- Codice IATA : LYX


EGMD - Lydd

ULTIMO METAR :
  • 221220Z 15015KT 9999 BKN012 10/08 Q0997

METARs OBSOLETI :
  • 221150Z 16016KT 9999 BKN010 BKN015 10/08 Q0998
  • 221120Z 16017KT 9999 BKN012 BKN044 10/08 Q0998
  • 221050Z 17018KT 9999 BKN013 10/07 Q0998
  • 221020Z 16017KT 9999 -SHRA BKN014 10/08 Q0998
  • 220950Z 17016KT 9999 BKN014 10/07 Q0998
  • 220920Z 17016KT 9999 BKN014 09/07 Q0998

TAF TAF EGMD
Valido dal 22 a 12 ore il 22 a 21 ore UTC


221058Z 2212/2221 16019KT 9999 SCT018
PROB40
TEMPO 2212/2221 BKN012
ATIS : +44 1797 322 422



MetMap, La meteo Aeronautica in un colpo d'occhio ! - Copyright ORBIFLY Dicembre 2007 - Disclaimer

ORBIFLY MET'MAP TEAM :

Programmazione e sviluppo : Alexandra Zaïnal
Concezione e sviluppo : Baudouin d'Aumeries
Co-Programmazione e sviluppo : Marc-Olivier Méhu
Supporto tecnico e logistico : Manuel Goepfert
Aiuto per la traduzione : Arnaldo La Scala

Contatto : metmap@orbifly.com




FONTI E CREDITI :

   NOAA